Time;durP1;ratioP1;P1;durP2;ratioP2;P2;SDS_P1;SDS_P2;PMS_P1;PMS_P2;Temp;Humidity;BMP_temperature;BMP_pressure;BME280_temperature;BME280_humidity;BME280_pressure;Samples;Min_cycle;Max_cycle;Signal;HPM_P1;HPM_P2
2021/10/15 00:01:26;;;;;;;;;5.00;4.00;;;;;14.97;47.34;98809.72;4806260;28;104242;-88
2021/10/15 00:03:53;;;;;;;;;4.50;4.25;;;;;14.96;47.19;98808.03;4794358;28;102731;-88
2021/10/15 00:06:20;;;;;;;;;5.00;5.00;;;;;14.97;47.19;98803.44;4789289;28;102136;-88
2021/10/15 00:08:49;;;;;;;;;4.75;4.75;;;;;14.96;46.79;98791.69;4812285;28;102280;-88
2021/10/15 00:11:17;;;;;;;;;4.25;4.25;;;;;14.96;47.36;98793.59;4823012;28;104343;-88
2021/10/15 00:13:44;;;;;;;;;5.00;4.25;;;;;14.96;47.43;98797.16;4810927;28;102827;-88
2021/10/15 00:16:11;;;;;;;;;6.00;5.00;;;;;14.97;47.38;98795.25;4818418;28;104168;-89
2021/10/15 00:18:38;;;;;;;;;4.00;4.00;;;;;14.96;47.19;98799.03;4822815;28;103648;-88
2021/10/15 00:21:05;;;;;;;;;4.00;4.00;;;;;14.96;47.41;98804.47;4815567;28;109033;-88
2021/10/15 00:23:33;;;;;;;;;3.75;3.50;;;;;14.94;47.32;98807.44;4816888;28;102791;-88
2021/10/15 00:26:00;;;;;;;;;4.50;3.75;;;;;14.95;46.91;98805.56;4811561;28;102256;-88
2021/10/15 00:28:27;;;;;;;;;3.00;3.00;;;;;14.95;46.94;98800.91;4805826;28;103437;-88
2021/10/15 00:30:57;;;;;;;;;4.00;3.00;;;;;14.95;47.33;98803.63;4816227;28;103688;-88
2021/10/15 00:33:24;;;;;;;;;5.00;4.00;;;;;14.96;46.96;98807.19;4807647;28;103016;-88
2021/10/15 00:35:54;;;;;;;;;3.50;3.50;;;;;14.97;47.10;98800.69;4811739;28;104098;-88
2021/10/15 00:38:21;;;;;;;;;5.75;4.50;;;;;14.96;46.92;98793.59;4820007;28;105027;-88
2021/10/15 00:40:49;;;;;;;;;4.00;2.00;;;;;14.95;47.47;98792.75;4810341;28;104441;-88
2021/10/15 00:43:16;;;;;;;;;6.00;4.75;;;;;14.95;47.03;98792.75;4811264;28;102735;-88
2021/10/15 00:45:43;;;;;;;;;5.25;5.00;;;;;14.95;46.98;98792.75;4819122;28;103355;-88
2021/10/15 00:48:10;;;;;;;;;5.25;4.00;;;;;14.95;47.16;98791.94;4820930;28;104087;-88
2021/10/15 00:50:38;;;;;;;;;3.00;3.00;;;;;14.95;47.05;98791.94;4826302;28;104317;-88
2021/10/15 00:53:05;;;;;;;;;4.25;4.00;;;;;14.96;47.42;98799.03;4792737;28;103624;-88
2021/10/15 00:55:32;;;;;;;;;4.00;4.00;;;;;14.96;47.18;98790.88;4805748;28;102935;-88
2021/10/15 00:57:59;;;;;;;;;5.25;3.25;;;;;14.96;47.18;98788.97;4814239;28;103572;-88
2021/10/15 01:00:26;;;;;;;;;5.00;4.00;;;;;14.96;46.80;98783.53;4796629;28;111464;-88
2021/10/15 01:02:53;;;;;;;;;4.00;3.00;;;;;14.95;47.12;98781.06;4717456;28;106141;-88
2021/10/15 01:05:20;;;;;;;;;4.50;4.00;;;;;14.96;47.51;98777.25;4782131;29;102378;-88
2021/10/15 01:07:48;;;;;;;;;5.00;4.00;;;;;14.94;47.55;98773.94;4776046;28;103709;-88
2021/10/15 01:10:16;;;;;;;;;4.50;3.50;;;;;14.94;47.17;98766.59;4767712;28;104088;-88
2021/10/15 01:12:44;;;;;;;;;3.00;3.00;;;;;14.95;47.38;98762.00;4810896;28;104646;-89
2021/10/15 01:15:11;;;;;;;;;3.00;2.00;;;;;14.94;47.23;98763.88;4830491;28;102283;-88
2021/10/15 01:17:38;;;;;;;;;3.00;3.00;;;;;14.95;46.78;98765.53;4819223;28;103695;-88
2021/10/15 01:20:06;;;;;;;;;4.50;2.50;;;;;14.93;46.77;98756.75;4820538;28;105492;-88
2021/10/15 01:22:33;;;;;;;;;4.75;4.00;;;;;14.94;47.34;98753.00;4813685;28;104225;-88
2021/10/15 01:25:00;;;;;;;;;3.75;3.00;;;;;14.94;47.03;98753.00;4806611;28;102906;-88
2021/10/15 01:27:27;;;;;;;;;3.00;3.00;;;;;14.95;47.10;98757.34;4808251;28;104084;-88
2021/10/15 01:29:55;;;;;;;;;3.00;3.00;;;;;14.95;47.36;98757.34;4821590;28;104217;-88
2021/10/15 01:32:22;;;;;;;;;3.25;3.00;;;;;14.95;46.99;98754.63;4825647;28;102426;-88
2021/10/15 01:34:51;;;;;;;;;3.75;3.00;;;;;14.95;47.09;98748.38;4824252;28;102893;-87
2021/10/15 01:37:18;;;;;;;;;3.00;3.00;;;;;14.95;47.28;98748.38;4814126;28;103132;-88
2021/10/15 01:39:45;;;;;;;;;4.25;3.25;;;;;14.94;46.83;98755.72;4813494;28;105284;-88
2021/10/15 01:44:57;;;;;;;;;4.00;4.00;;;;;14.94;46.94;98753.00;4818278;28;104269;-88
2021/10/15 01:47:24;;;;;;;;;5.75;4.00;;;;;14.95;47.01;98760.06;4814783;28;103163;-88
2021/10/15 01:49:51;;;;;;;;;3.00;3.00;;;;;14.94;47.33;98743.97;4806587;28;104706;-88
2021/10/15 01:52:18;;;;;;;;;4.00;3.00;;;;;14.93;47.11;98745.88;4821362;28;103678;-88
2021/10/15 01:54:45;;;;;;;;;3.00;2.00;;;;;14.94;47.20;98735.81;4813378;28;103977;-88
2021/10/15 01:57:12;;;;;;;;;3.50;3.50;;;;;14.94;47.41;98742.09;4823168;28;102404;-88
2021/10/15 01:59:39;;;;;;;;;2.75;2.00;;;;;14.94;47.40;98744.81;4820700;28;104344;-88
2021/10/15 02:02:06;;;;;;;;;6.00;2.75;;;;;14.94;46.86;98747.53;4818388;28;104446;-88
2021/10/15 02:04:33;;;;;;;;;4.00;3.25;;;;;14.95;47.17;98738.28;4818098;28;104017;-88
2021/10/15 02:07:00;;;;;;;;;4.00;2.00;;;;;14.95;47.11;98742.94;4822378;28;102552;-88
2021/10/15 02:09:27;;;;;;;;;2.00;2.00;;;;;14.93;47.37;98734.13;4824459;28;104349;-88
2021/10/15 02:11:54;;;;;;;;;4.00;4.00;;;;;14.93;47.33;98734.97;4822738;28;102302;-88
2021/10/15 02:14:21;;;;;;;;;3.00;3.00;;;;;14.93;47.30;98737.69;4817400;28;102329;-88
2021/10/15 02:16:48;;;;;;;;;4.25;2.75;;;;;14.93;47.02;98734.13;4820393;28;104005;-88
2021/10/15 02:19:15;;;;;;;;;3.00;2.50;;;;;14.94;46.80;98731.22;4828002;28;104078;-88
2021/10/15 02:21:42;;;;;;;;;4.00;4.00;;;;;14.95;46.99;98723.88;4825865;28;103578;-88
2021/10/15 02:24:09;;;;;;;;;3.50;2.00;;;;;14.94;46.80;98730.38;4807365;28;102500;-88
2021/10/15 02:26:36;;;;;;;;;2.75;2.00;;;;;14.93;47.25;98724.09;4825081;28;102482;-88
2021/10/15 02:29:03;;;;;;;;;4.00;4.00;;;;;14.92;46.96;98725.13;4825707;28;104122;-88
2021/10/15 02:31:30;;;;;;;;;4.00;3.25;;;;;14.93;46.99;98724.09;4824002;28;102255;-88
2021/10/15 02:33:57;;;;;;;;;2.50;2.25;;;;;14.93;46.83;98718.63;4829852;28;103071;-88
2021/10/15 02:36:24;;;;;;;;;3.00;3.00;;;;;14.93;46.92;98721.38;4823276;28;103451;-88
2021/10/15 02:38:51;;;;;;;;;2.00;2.00;;;;;14.93;47.43;98721.38;4822202;28;104098;-88
2021/10/15 02:41:19;;;;;;;;;4.25;3.50;;;;;14.93;47.25;98715.91;4826597;28;102501;-88
2021/10/15 02:43:46;;;;;;;;;2.25;2.25;;;;;14.94;47.08;98719.47;4830317;28;103618;-88
2021/10/15 02:46:13;;;;;;;;;3.00;2.00;;;;;14.93;47.32;98710.47;4826508;28;102966;-88
2021/10/15 02:48:41;;;;;;;;;3.75;3.75;;;;;14.94;46.89;98723.03;4827946;28;111785;-88
2021/10/15 02:51:08;;;;;;;;;3.00;2.00;;;;;14.94;47.10;98720.31;4827480;28;102523;-88
2021/10/15 02:53:35;;;;;;;;;2.75;2.75;;;;;14.93;47.05;98721.38;4808953;28;102469;-88
2021/10/15 02:56:02;;;;;;;;;2.75;2.50;;;;;14.94;47.17;98719.47;4823233;28;103381;-88
2021/10/15 02:58:29;;;;;;;;;3.00;2.00;;;;;14.93;47.20;98713.19;4818725;28;105208;-88
2021/10/15 03:00:57;;;;;;;;;3.75;2.50;;;;;14.92;46.99;98716.97;4821639;28;103730;-88
2021/10/15 03:03:24;;;;;;;;;3.25;3.00;;;;;14.94;46.90;98714.03;4831382;28;104650;-88
2021/10/15 03:05:51;;;;;;;;;2.00;1.00;;;;;14.94;46.78;98712.16;4822775;28;102496;-88
2021/10/15 03:08:18;;;;;;;;;2.00;2.00;;;;;14.93;47.08;98713.19;4817853;28;104296;-88
2021/10/15 03:10:45;;;;;;;;;3.25;3.00;;;;;14.93;47.29;98706.91;4831370;28;102387;-88
2021/10/15 03:13:12;;;;;;;;;2.75;2.00;;;;;14.93;47.22;98717.81;4818139;28;103246;-88
2021/10/15 03:15:39;;;;;;;;;3.25;2.00;;;;;14.93;46.96;98721.38;4820832;28;102638;-88
2021/10/15 03:18:06;;;;;;;;;2.00;2.00;;;;;14.92;46.93;98716.97;4818558;28;104487;-87
2021/10/15 03:20:35;;;;;;;;;3.50;3.50;;;;;14.94;47.41;98719.47;4829541;28;102409;-88
2021/10/15 03:23:03;;;;;;;;;2.25;2.00;;;;;14.93;46.94;98718.63;4821428;28;102587;-88
2021/10/15 03:25:30;;;;;;;;;2.75;2.50;;;;;14.94;46.80;98705.88;4810533;28;102353;-88
2021/10/15 03:27:57;;;;;;;;;2.75;2.75;;;;;14.92;47.38;98700.63;4812425;28;106761;-88
2021/10/15 03:30:24;;;;;;;;;2.25;2.25;;;;;14.94;47.29;98709.44;4827207;28;102197;-88
2021/10/15 03:32:51;;;;;;;;;2.00;2.00;;;;;14.93;47.30;98699.59;4825432;28;112074;-88
2021/10/15 03:35:18;;;;;;;;;2.50;2.25;;;;;14.94;47.22;98697.69;4814624;28;103884;-88
2021/10/15 03:37:45;;;;;;;;;4.50;4.00;;;;;14.94;47.18;98703.97;4831171;28;104231;-88
2021/10/15 03:40:12;;;;;;;;;3.00;2.00;;;;;14.93;47.13;98699.59;4808977;29;102147;-88
2021/10/15 03:42:39;;;;;;;;;2.00;2.00;;;;;14.94;47.38;98705.88;4808377;28;103965;-88
2021/10/15 03:45:07;;;;;;;;;2.00;2.00;;;;;14.93;47.28;98696.88;4833010;28;103725;-87
2021/10/15 03:47:34;;;;;;;;;2.00;1.75;;;;;14.92;47.46;98695.19;4830369;28;103856;-88
2021/10/15 03:50:02;;;;;;;;;2.00;2.00;;;;;14.93;47.30;98702.31;4818415;28;103786;-88
2021/10/15 03:52:29;;;;;;;;;3.25;2.00;;;;;14.92;47.32;98706.06;4825765;28;104189;-88
2021/10/15 03:54:56;;;;;;;;;2.00;2.00;;;;;14.90;47.09;98696.50;4824077;28;102620;-88
2021/10/15 03:57:23;;;;;;;;;2.00;2.00;;;;;14.92;47.24;98711.53;4820542;28;104041;-88
2021/10/15 03:59:52;;;;;;;;;3.75;3.50;;;;;14.92;47.38;98708.81;4821574;28;102760;-88
2021/10/15 04:02:19;;;;;;;;;3.00;2.00;;;;;14.92;47.43;98706.06;4827244;28;104352;-88
2021/10/15 04:04:46;;;;;;;;;2.75;2.75;;;;;14.92;47.41;98708.81;4824086;28;103003;-88
2021/10/15 04:07:13;;;;;;;;;2.00;2.00;;;;;14.92;46.99;98695.19;4826466;28;108943;-88
2021/10/15 04:09:40;;;;;;;;;2.00;1.75;;;;;14.93;47.11;98698.75;4824252;28;102618;-88
2021/10/15 04:12:07;;;;;;;;;3.00;3.00;;;;;14.92;47.41;98699.78;4822659;28;103078;-87
2021/10/15 04:14:35;;;;;;;;;2.00;2.00;;;;;14.94;47.27;98701.25;4815199;28;102468;-88
2021/10/15 04:17:02;;;;;;;;;2.25;1.75;;;;;14.93;47.48;98691.41;4825490;28;104630;-87
2021/10/15 04:19:29;;;;;;;;;2.50;2.00;;;;;14.94;47.62;98693.09;4817814;28;102239;-88
2021/10/15 04:21:56;;;;;;;;;2.00;2.00;;;;;14.94;47.09;98695.81;4833870;28;102695;-88
2021/10/15 04:24:23;;;;;;;;;3.00;2.00;;;;;14.93;47.10;98694.13;4831839;28;103875;-87
2021/10/15 04:26:50;;;;;;;;;2.75;2.00;;;;;14.94;47.15;98701.25;4827456;28;104076;-88
2021/10/15 04:29:16;;;;;;;;;2.00;2.00;;;;;14.94;47.31;98698.53;4833760;28;102500;-88
2021/10/15 04:31:44;;;;;;;;;2.50;2.25;;;;;14.94;47.52;98703.16;4828805;28;102654;-88
2021/10/15 04:34:11;;;;;;;;;2.75;1.00;;;;;14.94;47.17;98703.97;4822492;28;102785;-88
2021/10/15 04:36:38;;;;;;;;;3.00;3.00;;;;;14.93;47.56;98702.31;4831581;28;104069;-88
2021/10/15 04:39:05;;;;;;;;;2.00;2.00;;;;;14.94;47.25;98693.09;4839662;28;102400;-88
2021/10/15 04:41:32;;;;;;;;;1.25;1.00;;;;;14.93;47.08;98691.41;4818443;28;102244;-88
2021/10/15 04:43:59;;;;;;;;;3.75;2.00;;;;;14.93;47.30;98699.59;4844050;28;102283;-88
2021/10/15 04:46:27;;;;;;;;;2.00;2.00;;;;;14.93;47.35;98694.13;4831514;28;104329;-88
2021/10/15 04:48:54;;;;;;;;;3.00;3.00;;;;;14.92;47.28;98689.75;4827153;28;102085;-88
2021/10/15 04:51:21;;;;;;;;;2.75;2.00;;;;;14.92;47.49;98689.75;4838048;28;102449;-88
2021/10/15 04:53:48;;;;;;;;;2.00;2.00;;;;;14.92;47.22;98689.75;4832871;28;102627;-88
2021/10/15 04:56:15;;;;;;;;;1.00;1.00;;;;;14.93;47.70;98696.03;4830981;28;104248;-87
2021/10/15 04:58:42;;;;;;;;;2.00;2.00;;;;;14.93;47.37;98690.59;4830719;28;102237;-87
2021/10/15 05:01:09;;;;;;;;;2.25;2.00;;;;;14.93;47.31;98690.59;4831712;28;102450;-87
2021/10/15 05:03:37;;;;;;;;;1.00;1.00;;;;;14.93;47.43;98687.84;4830001;28;102601;-88
2021/10/15 05:06:04;;;;;;;;;1.00;1.00;;;;;14.93;47.14;98680.53;4825494;28;104115;-88
2021/10/15 05:08:33;;;;;;;;;2.00;2.00;;;;;14.93;47.77;98675.06;4831841;28;102279;-88
2021/10/15 05:11:00;;;;;;;;;2.00;2.00;;;;;14.93;47.42;98675.06;4824720;28;103532;-88
2021/10/15 05:13:27;;;;;;;;;3.00;3.00;;;;;14.92;47.57;98676.13;4829057;28;102271;-88
2021/10/15 05:15:54;;;;;;;;;1.75;1.75;;;;;14.92;47.51;98672.56;4828180;28;103155;-88
2021/10/15 05:18:21;;;;;;;;;2.00;2.00;;;;;14.93;47.73;98671.53;4820904;28;102664;-88
2021/10/15 05:20:48;;;;;;;;;1.75;1.75;;;;;14.93;47.43;98668.78;4824789;28;102290;-88
2021/10/15 05:23:15;;;;;;;;;2.00;2.00;;;;;14.93;47.03;98668.78;4835379;28;102776;-88
2021/10/15 05:25:42;;;;;;;;;0.00;0.00;;;;;14.93;47.40;98661.47;4820859;28;104312;-89
2021/10/15 05:28:09;;;;;;;;;0.50;0.50;;;;;14.93;47.37;98668.78;4823846;28;102377;-88
2021/10/15 05:30:36;;;;;;;;;2.75;2.00;;;;;14.92;47.07;98676.13;4827887;28;102864;-88
2021/10/15 05:33:03;;;;;;;;;1.00;1.00;;;;;14.92;47.24;98667.97;4821948;28;102537;-89
2021/10/15 05:35:30;;;;;;;;;2.00;2.00;;;;;14.94;47.69;98676.75;4822859;28;103984;-88
2021/10/15 05:37:57;;;;;;;;;1.50;1.50;;;;;14.96;47.94;98668.34;4833335;28;103379;-88
2021/10/15 05:40:26;;;;;;;;;1.00;1.00;;;;;14.98;48.23;98671.66;4828331;28;103102;-88
2021/10/15 05:42:54;;;;;;;;;2.00;2.00;;;;;14.96;47.46;98671.88;4825642;28;102672;-88
2021/10/15 05:45:21;;;;;;;;;2.00;2.00;;;;;14.95;47.88;98662.06;4830550;28;104024;-88
2021/10/15 05:47:48;;;;;;;;;1.75;1.75;;;;;14.95;48.00;98658.53;4829255;28;104219;-87
2021/10/15 05:50:15;;;;;;;;;2.25;1.75;;;;;14.96;47.86;98661.00;4828225;28;102707;-87
2021/10/15 05:52:45;;;;;;;;;1.00;1.00;;;;;14.96;47.82;98658.28;4830155;28;102657;-88
2021/10/15 06:00:28;;;;;;;;;1.75;1.25;;;;;14.97;48.08;98659.09;4837353;28;102626;-87
2021/10/15 06:02:55;;;;;;;;;2.00;2.00;;;;;14.96;47.41;98660.16;4822853;28;102266;-87
2021/10/15 06:09:51;;;;;;;;;2.00;2.00;;;;;14.96;47.54;98658.28;4826387;28;102231;-88
2021/10/15 06:14:19;;;;;;;;;1.75;1.00;;;;;14.95;47.42;98656.59;4813540;28;102310;-87
2021/10/15 06:16:58;;;;;;;;;2.00;1.00;;;;;14.95;47.45;98653.06;4830509;28;108713;-88
2021/10/15 06:19:27;;;;;;;;;2.50;1.75;;;;;14.95;47.64;98656.59;4836456;28;102582;-88
2021/10/15 06:21:54;;;;;;;;;1.25;1.00;;;;;14.92;47.81;98657.06;4829185;28;102204;-87
2021/10/15 06:24:21;;;;;;;;;0.00;0.00;;;;;14.94;47.43;98652.25;4830607;28;102251;-87
2021/10/15 06:26:48;;;;;;;;;1.25;1.00;;;;;14.95;47.67;98664.78;4835328;28;104159;-88
2021/10/15 06:29:15;;;;;;;;;1.00;1.00;;;;;14.96;47.66;98662.88;4828345;28;102811;-88
2021/10/15 06:31:42;;;;;;;;;1.00;1.00;;;;;14.96;47.79;98662.88;4815068;28;102437;-87
2021/10/15 06:34:09;;;;;;;;;2.00;1.00;;;;;14.96;47.56;98662.88;4831231;28;102576;-87
2021/10/15 06:36:36;;;;;;;;;2.00;1.75;;;;;14.96;47.60;98668.34;4812622;28;104091;-88
2021/10/15 06:39:03;;;;;;;;;1.00;1.00;;;;;14.97;47.76;98662.66;4809665;28;102683;-87
2021/10/15 06:41:31;;;;;;;;;1.75;1.75;;;;;14.96;47.31;98652.84;4814388;28;102576;-88
2021/10/15 06:43:58;;;;;;;;;1.00;1.00;;;;;14.97;47.73;98657.22;4815297;28;102726;-87
2021/10/15 06:46:25;;;;;;;;;1.00;1.00;;;;;14.96;47.49;98658.28;4814095;28;103090;-87
2021/10/15 06:48:52;;;;;;;;;0.00;0.00;;;;;14.97;47.62;98654.50;4807824;28;102879;-88
2021/10/15 06:51:19;;;;;;;;;1.00;1.00;;;;;14.96;47.63;98652.84;4819985;28;102614;-87
2021/10/15 06:53:46;;;;;;;;;1.75;1.00;;;;;14.97;47.69;98654.50;4817912;28;102515;-88
2021/10/15 06:56:13;;;;;;;;;1.50;1.50;;;;;14.97;47.65;98654.50;4806348;28;104050;-88
2021/10/15 06:58:40;;;;;;;;;1.25;1.00;;;;;14.97;47.40;98653.66;4814364;28;102851;-87
2021/10/15 07:01:07;;;;;;;;;2.00;1.00;;;;;14.95;47.75;98653.88;4809955;28;102258;-88
2021/10/15 07:03:35;;;;;;;;;1.00;1.00;;;;;14.96;47.77;98661.00;4814942;28;102339;-88
2021/10/15 07:06:02;;;;;;;;;0.75;0.00;;;;;14.95;47.66;98656.59;4810394;28;105531;-88
2021/10/15 07:08:29;;;;;;;;;1.00;1.00;;;;;14.97;47.55;98665.38;4807234;28;102525;-87
2021/10/15 07:10:56;;;;;;;;;1.00;1.00;;;;;14.97;47.59;98659.94;4808456;28;102239;-87
2021/10/15 07:13:23;;;;;;;;;1.50;1.25;;;;;14.97;47.69;98654.50;4805794;28;102267;-87
2021/10/15 07:15:50;;;;;;;;;1.50;1.00;;;;;14.98;47.56;98653.44;4814977;28;103824;-87
2021/10/15 07:18:19;;;;;;;;;1.00;1.00;;;;;14.98;47.38;98658.91;4814559;28;102588;-87
2021/10/15 07:20:47;;;;;;;;;3.00;1.25;;;;;14.99;47.71;98648.84;4807118;28;102291;-88
2021/10/15 07:23:14;;;;;;;;;1.00;1.00;;;;;15.00;47.46;98653.19;4817547;28;102730;-88
2021/10/15 07:25:41;;;;;;;;;2.00;1.00;;;;;14.99;47.41;98652.41;4810887;28;109001;-87
2021/10/15 07:28:09;;;;;;;;;0.00;0.00;;;;;14.98;47.64;98650.72;4807676;28;102713;-87
2021/10/15 07:30:38;;;;;;;;;1.00;1.00;;;;;14.99;47.67;98646.94;4816079;28;102684;-87
2021/10/15 07:33:05;;;;;;;;;0.25;0.00;;;;;14.99;47.69;98652.41;4826517;28;102685;-88
2021/10/15 07:35:32;;;;;;;;;1.50;1.00;;;;;15.00;47.70;98653.19;4822897;28;104225;-87
2021/10/15 07:37:59;;;;;;;;;0.75;0.75;;;;;15.00;47.76;98639.59;4822657;28;102414;-87
2021/10/15 07:40:27;;;;;;;;;2.00;2.00;;;;;14.99;47.37;98646.94;4813760;28;102338;-87
2021/10/15 07:42:54;;;;;;;;;1.00;1.00;;;;;14.98;47.56;98653.44;4823129;28;102707;-88
2021/10/15 07:45:21;;;;;;;;;1.50;1.00;;;;;15.00;47.80;98640.41;4828602;28;103866;-86
2021/10/15 07:47:58;;;;;;;;;1.50;1.00;;;;;15.00;47.35;98648.59;4824492;28;102181;-87
2021/10/15 07:50:25;;;;;;;;;1.00;1.00;;;;;15.00;47.41;98645.88;4828201;28;102583;-88
2021/10/15 07:52:52;;;;;;;;;2.75;1.50;;;;;15.00;47.53;98640.41;4826053;28;102648;-87
2021/10/15 07:55:19;;;;;;;;;1.25;1.00;;;;;15.02;47.53;98649.22;4830077;28;104057;-88
2021/10/15 07:57:46;;;;;;;;;1.50;0.75;;;;;15.01;47.68;98639.38;4822215;28;103875;-88
2021/10/15 08:00:13;;;;;;;;;1.00;1.00;;;;;15.02;47.28;98641.03;4815846;28;104288;-88
2021/10/15 08:02:40;;;;;;;;;1.00;1.00;;;;;15.03;47.71;98642.72;4824733;28;102287;-88
2021/10/15 08:05:12;;;;;;;;;2.00;1.50;;;;;15.01;47.72;98644.81;4829394;28;104351;-88
2021/10/15 08:07:40;;;;;;;;;2.00;1.50;;;;;15.03;47.39;98637.25;4819794;28;102496;-87
2021/10/15 08:10:08;;;;;;;;;1.00;1.00;;;;;15.04;47.63;98643.53;4831145;28;102533;-88
2021/10/15 08:12:38;;;;;;;;;1.00;1.00;;;;;15.03;47.48;98642.72;4825351;28;103347;-88
2021/10/15 08:15:08;;;;;;;;;1.00;1.00;;;;;15.03;47.64;98642.72;4827034;28;104029;-88
2021/10/15 08:17:41;;;;;;;;;1.00;1.00;;;;;15.03;47.53;98642.72;4834209;28;102065;-88
2021/10/15 08:20:08;;;;;;;;;1.00;1.00;;;;;15.03;47.61;98626.38;4827968;28;102286;-87
2021/10/15 08:22:35;;;;;;;;;0.50;0.50;;;;;15.02;47.59;98635.59;4824942;28;103211;-88
2021/10/15 08:25:22;;;;;;;;;1.00;1.00;;;;;15.03;47.59;98644.59;4837797;28;108526;-85
2021/10/15 08:27:49;;;;;;;;;2.00;1.25;;;;;15.03;47.23;98639.97;4829788;28;102095;-88
2021/10/15 08:30:16;;;;;;;;;1.00;1.00;;;;;15.03;47.40;98639.97;4832782;28;102488;-88
2021/10/15 08:32:43;;;;;;;;;2.25;1.50;;;;;15.02;47.88;98640.19;4837895;28;103351;-87
2021/10/15 08:35:10;;;;;;;;;1.50;1.00;;;;;15.04;47.60;98636.19;4830276;28;104791;-87
2021/10/15 08:37:38;;;;;;;;;1.75;1.75;;;;;15.05;47.93;98634.28;4824609;28;102662;-88
2021/10/15 08:40:06;;;;;;;;;1.00;1.00;;;;;15.05;47.50;98623.41;4820372;28;102622;-88
2021/10/15 08:42:34;;;;;;;;;1.00;1.00;;;;;15.05;47.76;98646.00;4821239;28;102977;-87
2021/10/15 08:45:01;;;;;;;;;1.00;1.00;;;;;15.05;47.62;98629.69;4820695;28;104154;-87
2021/10/15 08:47:28;;;;;;;;;1.00;1.00;;;;;15.05;47.81;98635.13;4822467;28;103953;-87
2021/10/15 08:50:15;;;;;;;;;1.00;1.00;;;;;15.06;47.46;98631.34;4833564;28;102629;-88
2021/10/15 08:52:42;;;;;;;;;1.00;1.00;;;;;15.06;47.59;98630.50;4826689;28;104287;-87
2021/10/15 08:55:09;;;;;;;;;2.00;2.00;;;;;15.07;47.76;98633.00;4825819;28;103825;-87
2021/10/15 08:57:36;;;;;;;;;1.75;1.75;;;;;15.06;47.63;98625.91;4830944;28;102703;-87
2021/10/15 09:00:32;;;;;;;;;1.00;1.00;;;;;15.07;47.77;98616.69;4826442;28;102279;-87
2021/10/15 09:03:17;;;;;;;;;1.00;1.00;;;;;15.07;47.66;98624.84;4826481;28;102382;-87
2021/10/15 09:06:00;;;;;;;;;1.00;1.00;;;;;15.08;47.34;98622.97;4821943;28;104097;-88
2021/10/15 09:08:51;;;;;;;;;1.00;1.00;;;;;15.07;47.86;98624.84;4829132;28;102499;-88
2021/10/15 09:11:38;;;;;;;;;1.00;1.00;;;;;15.08;47.76;98618.31;4828661;28;103452;-87
2021/10/15 09:14:19;;;;;;;;;1.00;1.00;;;;;15.09;47.33;98619.16;4824213;28;102781;-88
2021/10/15 09:16:56;;;;;;;;;2.00;2.00;;;;;15.08;47.59;98610.16;4829162;28;104040;-88
2021/10/15 09:19:41;;;;;;;;;1.75;1.75;;;;;15.09;47.44;98617.25;4834949;28;102111;-86
2021/10/15 09:22:25;;;;;;;;;1.00;1.00;;;;;15.09;47.54;98609.09;4832053;28;102570;-87
2021/10/15 09:25:03;;;;;;;;;1.00;0.25;;;;;15.10;47.28;98618.09;4806853;28;104707;-84
2021/10/15 09:27:46;;;;;;;;;1.00;1.00;;;;;15.11;47.67;98614.31;4831904;28;103979;-87
2021/10/15 09:30:17;;;;;;;;;1.50;1.00;;;;;15.10;47.66;98610.75;4830605;28;102690;-87
2021/10/15 09:32:51;;;;;;;;;1.00;1.00;;;;;15.11;47.24;98609.72;4824577;28;103642;-88
2021/10/15 09:35:36;;;;;;;;;2.00;1.25;;;;;15.11;47.39;98609.72;4833562;28;102277;-88
2021/10/15 09:38:05;;;;;;;;;2.00;1.00;;;;;15.10;47.82;98610.75;4819486;28;108985;-88
2021/10/15 09:40:40;;;;;;;;;1.00;0.75;;;;;15.11;47.72;98617.88;4831053;28;104390;-87
2021/10/15 09:43:09;;;;;;;;;1.50;1.25;;;;;15.11;48.00;98601.53;4810629;28;104176;-88
2021/10/15 09:45:41;;;;;;;;;0.75;0.75;;;;;15.11;47.61;98606.97;4813249;28;102650;-88
2021/10/15 09:48:38;;;;;;;;;0.50;0.50;;;;;15.11;48.01;98595.25;4802189;28;104258;-87
2021/10/15 09:51:16;;;;;;;;;0.75;0.75;;;;;15.11;47.56;98595.25;4812073;28;102232;-87
2021/10/15 09:54:07;;;;;;;;;0.00;0.00;;;;;15.12;47.62;98589.59;4826797;28;102379;-88
2021/10/15 09:56:39;;;;;;;;;1.00;0.00;;;;;15.12;47.65;98595.03;4826802;28;102638;-87
2021/10/15 09:59:06;;;;;;;;;2.00;1.00;;;;;15.11;47.63;98590.63;4833167;28;104048;-87
2021/10/15 10:01:35;;;;;;;;;1.25;1.00;;;;;15.12;47.83;98575.97;4813496;28;102915;-88
2021/10/15 10:04:05;;;;;;;;;1.00;1.00;;;;;15.13;47.35;98580.34;4828627;28;103817;-87
2021/10/15 10:06:32;;;;;;;;;1.50;1.00;;;;;15.15;47.66;98585.56;4822864;28;102297;-88
2021/10/15 10:09:00;;;;;;;;;0.50;0.50;;;;;15.12;47.61;98575.97;4821648;28;104195;-88
2021/10/15 10:11:30;;;;;;;;;1.75;1.00;;;;;15.14;47.41;98576.56;4818301;28;103604;-87
2021/10/15 10:14:15;;;;;;;;;1.00;1.00;;;;;15.17;47.69;98578.81;4824071;28;104104;-88
2021/10/15 10:16:44;;;;;;;;;1.50;1.00;;;;;15.16;47.52;98570.88;4829510;28;102628;-87
2021/10/15 10:19:11;;;;;;;;;1.00;0.00;;;;;15.15;47.60;98559.16;4826723;28;104172;-88
2021/10/15 10:21:38;;;;;;;;;0.75;0.75;;;;;15.14;47.71;98560.22;4816131;28;102189;-87
2021/10/15 10:24:10;;;;;;;;;1.00;1.00;;;;;15.17;47.65;98564.38;4829392;28;102109;-88
2021/10/15 10:26:44;;;;;;;;;0.75;0.75;;;;;15.17;47.53;98565.19;4812139;28;102582;-87
2021/10/15 10:29:12;;;;;;;;;2.00;1.00;;;;;15.16;47.93;98555.38;4803039;28;104165;-88
2021/10/15 10:31:40;;;;;;;;;0.75;0.75;;;;;15.19;48.05;98559.50;4827548;28;102689;-88
2021/10/15 10:34:10;;;;;;;;;0.25;0.25;;;;;15.19;47.80;98560.34;4816874;28;104351;-87
2021/10/15 10:36:38;;;;;;;;;1.00;1.00;;;;;15.18;48.00;98553.22;4836023;28;102557;-87
2021/10/15 10:39:21;;;;;;;;;2.00;1.00;;;;;15.20;47.81;98547.56;4829044;28;103037;-88
2021/10/15 10:42:15;;;;;;;;;1.00;1.00;;;;;15.21;47.93;98545.69;4826290;28;102440;-88
2021/10/15 10:44:48;;;;;;;;;1.00;1.00;;;;;15.21;47.99;98549.25;4825735;28;102201;-88
2021/10/15 10:47:19;;;;;;;;;1.75;1.00;;;;;15.22;47.82;98541.91;4831425;28;102257;-87
2021/10/15 10:50:02;;;;;;;;;0.00;0.00;;;;;15.23;47.59;98543.53;4826663;28;104274;-88
2021/10/15 10:52:53;;;;;;;;;0.00;0.00;;;;;15.24;48.30;98545.22;4823724;28;102273;-88
2021/10/15 10:55:42;;;;;;;;;1.00;0.50;;;;;15.24;47.71;98534.31;4831341;28;102154;-88
2021/10/15 10:58:32;;;;;;;;;1.00;1.00;;;;;15.25;47.71;98538.69;4805330;28;103711;-88
2021/10/15 11:01:19;;;;;;;;;0.00;0.00;;;;;15.24;47.76;98537.03;4823218;28;107569;-88
2021/10/15 11:03:47;;;;;;;;;1.00;1.00;;;;;15.24;47.55;98534.31;4830501;28;102240;-88
2021/10/15 11:06:15;;;;;;;;;1.50;1.50;;;;;15.24;47.17;98526.13;4805320;28;104731;-87
2021/10/15 11:08:42;;;;;;;;;0.00;0.00;;;;;15.24;48.02;98534.31;4815079;28;102735;-88
2021/10/15 11:11:22;;;;;;;;;2.00;2.00;;;;;15.27;47.84;98531.09;4809181;28;103272;-88
2021/10/15 11:13:49;;;;;;;;;0.50;0.50;;;;;15.27;48.07;98520.22;4819837;28;103882;-88
2021/10/15 11:16:27;;;;;;;;;1.00;1.00;;;;;15.28;47.68;98525.44;4818401;28;102032;-88
2021/10/15 11:18:54;;;;;;;;;1.00;1.00;;;;;15.29;47.71;98512.66;4799015;28;102828;-87
2021/10/15 11:21:22;;;;;;;;;1.00;0.50;;;;;15.28;47.83;98510.97;4796699;28;108818;-88
2021/10/15 11:23:52;;;;;;;;;1.50;1.00;;;;;15.29;48.03;98526.28;4827571;28;102286;-88
2021/10/15 11:26:31;;;;;;;;;1.25;1.25;;;;;15.30;48.09;98522.50;4809939;28;102618;-88
2021/10/15 11:29:03;;;;;;;;;1.50;0.50;;;;;15.29;47.74;98515.38;4828827;28;102372;-87
2021/10/15 11:31:30;;;;;;;;;1.00;1.00;;;;;15.30;47.77;98517.03;4797422;28;105292;-88
2021/10/15 11:34:10;;;;;;;;;1.00;1.00;;;;;15.30;47.89;98514.31;4807757;28;102899;-88
2021/10/15 11:36:38;;;;;;;;;1.00;1.00;;;;;15.30;47.72;98515.16;4832871;28;102810;-87
2021/10/15 11:39:05;;;;;;;;;1.00;0.00;;;;;15.30;47.81;98511.59;4821410;28;102485;-87
2021/10/15 11:41:32;;;;;;;;;1.00;1.00;;;;;15.29;48.28;98499.03;4832815;28;104326;-87
2021/10/15 11:43:59;;;;;;;;;2.00;2.00;;;;;15.30;47.90;98503.41;4821858;28;104324;-87
2021/10/15 11:46:30;;;;;;;;;1.00;0.25;;;;;15.30;47.65;98500.69;4817947;28;103312;-87
2021/10/15 11:48:57;;;;;;;;;0.50;0.50;;;;;15.29;47.97;98494.41;4813013;28;102470;-87